Time;durP1;ratioP1;P1;durP2;ratioP2;P2;SDS_P1;SDS_P2;PMS_P1;PMS_P2;Temp;Humidity;BMP_temperature;BMP_pressure;BME280_temperature;BME280_humidity;BME280_pressure;Samples;Min_cycle;Max_cycle;Signal;HPM_P1;HPM_P2
2022/01/29 00:00:12;;;;;;;23.62;14.80;;;;;;;3.41;81.19;99600.55;1804179;79;21378;-61
2022/01/29 00:03:17;;;;;;;21.62;14.68;;;;;;;3.42;81.23;99594.66;1804323;79;21337;-60
2022/01/29 00:06:24;;;;;;;22.17;14.73;;;;;;;3.41;81.28;99591.61;1804264;79;22031;-62
2022/01/29 00:09:32;;;;;;;19.65;13.80;;;;;;;3.39;81.21;99595.83;1804077;79;21209;-60
2022/01/29 00:12:39;;;;;;;20.48;13.38;;;;;;;3.37;81.27;99596.47;1804319;79;21205;-61
2022/01/29 00:15:46;;;;;;;18.02;13.43;;;;;;;3.37;81.34;99597.81;1804073;79;21350;-61
2022/01/29 00:18:51;;;;;;;20.40;14.10;;;;;;;3.37;81.35;99599.66;1804086;79;21342;-60
2022/01/29 00:21:58;;;;;;;22.50;13.98;;;;;;;3.34;81.34;99597.25;1804287;79;21377;-60
2022/01/29 00:25:04;;;;;;;17.52;12.63;;;;;;;3.31;81.38;99593.01;1804075;79;21419;-61
2022/01/29 00:28:12;;;;;;;20.37;13.83;;;;;;;3.30;81.52;99596.70;1804230;79;21236;-60
2022/01/29 00:31:17;;;;;;;21.50;12.93;;;;;;;3.33;81.63;99591.51;1804202;79;21330;-60
2022/01/29 00:34:24;;;;;;;21.00;14.07;;;;;;;3.37;81.70;99596.95;1804074;79;21418;-61
2022/01/29 00:37:31;;;;;;;20.27;13.10;;;;;;;3.38;81.71;99587.86;1804100;79;21228;-61
2022/01/29 00:40:37;;;;;;;21.77;12.82;;;;;;;3.41;81.72;99592.44;1802455;79;21217;-60
2022/01/29 00:43:44;;;;;;;20.70;13.28;;;;;;;3.44;81.77;99597.55;1776323;79;21354;-59
2022/01/29 00:46:51;;;;;;;19.12;12.82;;;;;;;3.45;81.77;99587.09;1806550;79;21642;-60
2022/01/29 00:49:56;;;;;;;18.40;12.10;;;;;;;3.49;81.79;99593.07;1793215;79;21232;-59
2022/01/29 00:53:02;;;;;;;15.85;11.18;;;;;;;3.48;81.75;99590.85;1804102;79;21331;-60
2022/01/29 00:56:09;;;;;;;15.45;11.08;;;;;;;3.49;81.77;99584.43;1804222;79;21339;-60
2022/01/29 00:59:16;;;;;;;15.53;10.08;;;;;;;3.49;81.72;99584.43;1804063;79;21351;-60
2022/01/29 01:02:22;;;;;;;14.47;10.53;;;;;;;3.45;81.68;99588.45;1804049;79;21193;-60
2022/01/29 01:05:29;;;;;;;13.32;9.58;;;;;;;3.39;81.72;99581.44;1782568;80;21268;-59
2022/01/29 01:08:35;;;;;;;12.50;9.60;;;;;;;3.35;81.90;99586.78;1802791;78;21240;-59
2022/01/29 01:11:41;;;;;;;14.00;10.55;;;;;;;3.34;82.02;99591.36;1804482;79;21366;-60
2022/01/29 01:14:47;;;;;;;13.28;10.00;;;;;;;3.31;82.10;99587.60;1804271;79;21342;-59
2022/01/29 01:17:54;;;;;;;13.98;10.03;;;;;;;3.28;82.27;99590.61;1804075;79;21705;-59
2022/01/29 01:20:59;;;;;;;12.70;9.58;;;;;;;3.27;82.42;99592.11;1801830;79;21347;-60
2022/01/29 01:24:06;;;;;;;12.68;9.38;;;;;;;3.24;82.53;99586.48;1794864;79;21331;-60
2022/01/29 01:27:13;;;;;;;15.18;9.68;;;;;;;3.26;82.72;99589.90;1792337;80;21331;-61
2022/01/29 01:30:18;;;;;;;12.70;9.68;;;;;;;3.24;82.76;99590.54;1723826;82;21225;-60
2022/01/29 01:33:24;;;;;;;13.75;9.98;;;;;;;3.24;82.81;99593.24;1792623;79;21359;-60
2022/01/29 01:36:29;;;;;;;13.22;9.65;;;;;;;3.23;82.92;99591.55;1707478;83;21193;-59
2022/01/29 01:39:38;;;;;;;12.65;9.73;;;;;;;3.23;83.00;99586.63;1799643;79;21379;-59
2022/01/29 01:42:45;;;;;;;14.98;10.30;;;;;;;3.24;83.11;99586.97;1726193;83;21439;-61
2022/01/29 01:45:51;;;;;;;14.55;9.75;;;;;;;3.26;83.17;99584.48;1794647;79;21732;-61
2022/01/29 01:48:57;;;;;;;13.28;9.18;;;;;;;3.28;83.22;99587.91;1792691;80;21390;-59
2022/01/29 01:52:02;;;;;;;13.75;9.80;;;;;;;3.30;83.25;99591.81;1714366;83;21731;-60
2022/01/29 01:55:07;;;;;;;13.75;9.25;;;;;;;3.31;83.25;99593.01;1757221;81;21431;-59
2022/01/29 01:58:15;;;;;;;13.85;9.23;;;;;;;3.31;83.23;99597.07;1791863;80;21881;-60
2022/01/29 02:01:20;;;;;;;15.05;10.72;;;;;;;3.32;83.27;99602.81;1792348;80;21841;-59
2022/01/29 02:04:26;;;;;;;16.70;11.05;;;;;;;3.32;83.28;99598.76;1792378;80;21406;-59
2022/01/29 02:07:31;;;;;;;16.27;11.40;;;;;;;3.30;83.22;99599.40;1793015;80;21189;-60
2022/01/29 02:10:39;;;;;;;13.50;10.23;;;;;;;3.28;83.26;99601.42;1792951;80;21241;-58
2022/01/29 02:13:45;;;;;;;14.40;10.93;;;;;;;3.27;83.34;99600.23;1792745;80;21796;-58
2022/01/29 02:16:51;;;;;;;15.05;10.55;;;;;;;3.25;83.38;99601.69;1792916;80;21344;-58
2022/01/29 02:19:57;;;;;;;14.40;10.32;;;;;;;3.24;83.43;99605.91;1727938;83;21284;-57
2022/01/29 02:23:04;;;;;;;16.65;10.65;;;;;;;3.20;83.47;99612.13;1792863;80;21229;-59
2022/01/29 02:26:09;;;;;;;17.05;10.48;;;;;;;3.18;83.56;99613.26;1728446;82;21402;-57
2022/01/29 02:29:15;;;;;;;14.53;10.55;;;;;;;3.16;83.62;99606.66;1792806;80;21362;-58
2022/01/29 02:32:22;;;;;;;14.93;10.85;;;;;;;3.14;83.70;99609.99;1792970;80;21463;-58
2022/01/29 02:35:29;;;;;;;15.45;11.00;;;;;;;3.13;83.77;99612.36;1792955;80;21375;-58
2022/01/29 02:38:35;;;;;;;13.35;10.45;;;;;;;3.08;83.82;99616.00;1793004;80;21206;-58
2022/01/29 02:41:44;;;;;;;14.95;10.45;;;;;;;3.06;83.88;99612.58;1790743;80;21343;-59
2022/01/29 02:44:50;;;;;;;15.18;11.55;;;;;;;3.01;83.97;99616.25;1729117;82;21901;-59
2022/01/29 02:47:55;;;;;;;13.00;10.98;;;;;;;2.98;84.07;99625.48;1741090;82;21221;-58
2022/01/29 02:51:02;;;;;;;14.55;11.28;;;;;;;2.92;84.17;99617.97;1792696;80;21262;-59
2022/01/29 02:54:07;;;;;;;13.55;10.85;;;;;;;2.92;84.40;99618.46;1711895;83;21296;-60
2022/01/29 02:57:14;;;;;;;14.95;11.12;;;;;;;2.95;84.55;99618.16;1741061;82;21220;-59
2022/01/29 03:00:21;;;;;;;13.85;10.45;;;;;;;2.95;84.58;99616.81;1727894;82;21423;-59
2022/01/29 03:03:27;;;;;;;15.03;11.35;;;;;;;2.94;84.59;99624.58;1725150;82;21198;-60
2022/01/29 03:06:33;;;;;;;13.50;10.38;;;;;;;2.93;84.65;99622.89;1730021;82;21722;-61
2022/01/29 03:09:40;;;;;;;15.28;10.82;;;;;;;2.94;84.77;99631.34;1741078;82;21271;-60
2022/01/29 03:12:47;;;;;;;13.90;10.88;;;;;;;2.97;84.78;99631.91;1728971;82;21221;-59
2022/01/29 03:15:53;;;;;;;13.18;9.95;;;;;;;2.99;84.80;99638.52;1792823;80;21237;-59
2022/01/29 03:19:01;;;;;;;13.18;10.18;;;;;;;3.00;84.88;99632.09;1793217;79;21229;-59
2022/01/29 03:22:06;;;;;;;14.87;10.70;;;;;;;3.01;84.82;99636.52;1792960;80;21229;-61
2022/01/29 03:25:16;;;;;;;12.20;9.30;;;;;;;3.02;84.82;99637.73;1792964;80;21367;-60
2022/01/29 03:28:23;;;;;;;11.75;9.65;;;;;;;3.04;84.79;99637.58;1728078;83;21479;-61
2022/01/29 03:31:30;;;;;;;13.00;10.15;;;;;;;3.04;84.76;99641.64;1741146;82;21205;-59
2022/01/29 03:34:36;;;;;;;14.40;9.58;;;;;;;3.03;84.81;99649.38;1729310;82;21414;-59
2022/01/29 03:37:42;;;;;;;11.90;8.70;;;;;;;3.04;84.81;99657.86;1728333;82;21382;-59
2022/01/29 03:40:50;;;;;;;12.80;8.90;;;;;;;3.01;84.68;99652.74;1727914;83;21371;-60
2022/01/29 03:43:57;;;;;;;10.88;8.25;;;;;;;2.96;84.71;99654.54;1727610;80;21367;-59
2022/01/29 03:47:02;;;;;;;12.28;9.13;;;;;;;2.93;84.75;99660.20;1793068;80;21850;-59
2022/01/29 03:50:07;;;;;;;12.58;8.60;;;;;;;2.92;84.85;99656.30;1728308;82;21758;-59
2022/01/29 03:53:14;;;;;;;10.25;8.38;;;;;;;2.94;84.90;99661.93;1792807;80;21209;-59
2022/01/29 03:56:21;;;;;;;10.48;8.40;;;;;;;2.94;84.85;99671.39;1792872;80;21328;-61
2022/01/29 03:59:26;;;;;;;12.53;8.88;;;;;;;2.94;84.87;99670.53;1792878;80;21739;-60
2022/01/29 04:02:32;;;;;;;10.53;8.15;;;;;;;2.95;84.96;99678.98;1792779;80;21356;-60
2022/01/29 04:05:38;;;;;;;9.48;7.58;;;;;;;2.95;84.90;99677.62;1792835;80;21443;-60
2022/01/29 04:08:44;;;;;;;9.33;7.10;;;;;;;2.93;84.93;99681.00;1792888;80;21329;-59
2022/01/29 04:11:51;;;;;;;8.60;6.55;;;;;;;2.94;84.96;99678.64;1792885;80;21181;-59
2022/01/29 04:14:58;;;;;;;7.62;6.67;;;;;;;2.96;84.97;99684.77;1792795;80;21884;-59
2022/01/29 04:18:04;;;;;;;8.20;6.30;;;;;;;2.95;84.92;99685.25;1792933;80;21347;-59
2022/01/29 04:21:11;;;;;;;6.03;5.42;;;;;;;2.94;84.98;99681.34;1792859;80;21475;-58
2022/01/29 04:24:18;;;;;;;8.28;5.55;;;;;;;2.95;85.00;99692.01;1792775;80;21201;-59
2022/01/29 04:27:34;;;;;;;6.83;5.42;;;;;;;2.94;84.96;99693.02;1793045;80;21339;-59
2022/01/29 04:30:42;;;;;;;7.15;5.90;;;;;;;2.94;84.95;99690.80;1728181;81;21377;-60
2022/01/29 04:33:40;;;;;;;6.20;5.58;;;;;;;2.94;84.97;99702.97;1792835;80;21312;-59
2022/01/29 04:36:47;;;;;;;5.92;5.10;;;;;;;2.94;85.00;99701.13;1793031;80;21810;-60
2022/01/29 04:39:54;;;;;;;6.08;4.78;;;;;;;2.95;85.04;99701.95;1792941;80;21343;-60
2022/01/29 04:43:00;;;;;;;5.95;5.30;;;;;;;2.94;85.04;99703.83;1728071;83;21920;-60
2022/01/29 04:46:09;;;;;;;6.35;5.62;;;;;;;2.95;85.00;99707.36;1789496;80;21830;-60
2022/01/29 04:49:17;;;;;;;7.67;6.03;;;;;;;2.92;85.05;99712.57;1706019;83;21391;-60
2022/01/29 04:52:22;;;;;;;8.45;5.90;;;;;;;2.91;85.09;99711.36;1733121;82;21274;-59
2022/01/29 04:55:29;;;;;;;11.20;8.50;;;;;;;2.91;85.19;99714.93;1730563;83;21198;-59
2022/01/29 04:58:35;;;;;;;11.10;7.92;;;;;;;2.93;85.25;99719.67;1705765;83;21422;-59
2022/01/29 05:01:39;;;;;;;10.65;7.30;;;;;;;2.93;85.30;99722.38;1734558;82;21249;-58
2022/01/29 05:04:45;;;;;;;14.58;9.10;;;;;;;2.93;85.28;99724.25;1730731;82;21940;-60
2022/01/29 05:07:51;;;;;;;16.05;9.48;;;;;;;2.90;85.22;99725.89;1789247;80;21347;-59
2022/01/29 05:10:56;;;;;;;16.73;9.28;;;;;;;2.89;85.27;99726.86;1789592;80;21364;-59
2022/01/29 05:14:03;;;;;;;9.73;6.62;;;;;;;2.88;85.36;99726.03;1705675;83;21838;-59
2022/01/29 05:27:09;;;;;;;7.55;6.58;;;;;;;2.91;85.46;99751.42;1789651;79;21165;-60
2022/01/29 05:30:16;;;;;;;7.67;6.08;;;;;;;2.90;85.45;99761.02;1788958;80;21884;-60
2022/01/29 05:33:22;;;;;;;10.05;6.05;;;;;;;2.87;85.47;99766.72;1789224;80;21209;-61
2022/01/29 05:36:28;;;;;;;8.03;6.40;;;;;;;2.88;85.59;99771.12;1705777;84;21205;-60
2022/01/29 05:39:33;;;;;;;7.78;5.83;;;;;;;2.88;85.63;99769.28;1789610;80;21257;-59
2022/01/29 05:42:39;;;;;;;6.95;5.40;;;;;;;2.89;85.63;99775.03;1789516;80;21944;-60
2022/01/29 05:45:45;;;;;;;8.25;5.45;;;;;;;2.90;85.67;99788.05;1789670;79;21395;-60
2022/01/29 05:48:52;;;;;;;8.08;5.90;;;;;;;2.93;85.69;99790.47;1791913;80;21248;-60
2022/01/29 05:51:57;;;;;;;8.75;5.70;;;;;;;2.92;85.63;99788.73;1794338;79;21348;-60
2022/01/29 05:55:02;;;;;;;6.95;6.25;;;;;;;2.93;85.60;99796.70;1800351;79;21356;-60
2022/01/29 05:58:08;;;;;;;7.08;5.90;;;;;;;2.93;85.57;99797.22;1803293;79;21394;-60
2022/01/29 06:01:13;;;;;;;7.83;5.90;;;;;;;2.94;85.57;99798.44;1770709;81;21351;-59
2022/01/29 06:04:19;;;;;;;6.65;5.60;;;;;;;2.97;85.59;99804.04;1770879;80;21346;-59
2022/01/29 06:07:24;;;;;;;9.63;6.90;;;;;;;2.98;85.46;99799.84;1770453;81;21386;-59
2022/01/29 06:10:32;;;;;;;12.15;8.70;;;;;;;2.99;85.39;99804.76;1770059;80;21205;-59
2022/01/29 06:13:39;;;;;;;10.90;8.50;;;;;;;2.99;85.35;99810.16;1770138;80;21346;-60
2022/01/29 06:16:44;;;;;;;12.00;8.40;;;;;;;3.01;85.32;99808.19;1770039;81;21844;-59
2022/01/29 06:19:50;;;;;;;7.22;6.47;;;;;;;3.01;85.17;99812.23;1772205;79;21751;-59
2022/01/29 06:22:55;;;;;;;8.10;6.92;;;;;;;3.00;85.18;99819.97;1770425;80;21201;-59
2022/01/29 06:26:00;;;;;;;9.13;7.55;;;;;;;2.98;85.04;99817.94;1769818;80;21254;-59
2022/01/29 06:29:07;;;;;;;14.68;7.10;;;;;;;2.99;85.09;99814.22;1769416;80;21722;-59
2022/01/29 06:32:13;;;;;;;7.50;5.70;;;;;;;3.02;85.16;99818.85;1770740;80;21750;-60
2022/01/29 06:35:18;;;;;;;7.47;5.35;;;;;;;3.05;85.07;99824.46;1770859;80;21208;-59
2022/01/29 06:38:25;;;;;;;8.00;7.20;;;;;;;3.04;84.94;99828.17;1770613;80;21729;-59
2022/01/29 06:41:31;;;;;;;11.15;8.03;;;;;;;3.05;84.96;99829.38;1771343;81;21196;-60
2022/01/29 06:44:36;;;;;;;9.98;7.45;;;;;;;3.09;84.90;99829.95;1772477;80;21346;-60
2022/01/29 06:47:42;;;;;;;20.05;12.20;;;;;;;3.11;84.81;99832.00;1770703;81;21370;-60
2022/01/29 06:50:50;;;;;;;34.58;17.90;;;;;;;3.11;84.73;99834.70;1772275;81;21255;-59
2022/01/29 06:53:55;;;;;;;30.65;18.57;;;;;;;3.12;84.58;99836.92;1772633;80;21390;-60
2022/01/29 06:57:00;;;;;;;13.08;9.83;;;;;;;3.13;84.62;99846.23;1746459;81;21331;-60
2022/01/29 07:00:07;;;;;;;7.75;6.45;;;;;;;3.15;84.47;99846.09;1772600;80;21522;-60
2022/01/29 07:03:12;;;;;;;5.78;5.05;;;;;;;3.16;84.36;99853.20;1771711;81;21210;-60
2022/01/29 07:06:17;;;;;;;9.13;7.50;;;;;;;3.16;84.21;99848.66;1772290;81;21362;-61
2022/01/29 07:09:22;;;;;;;8.80;7.20;;;;;;;3.20;84.06;99855.98;1771804;80;21366;-60
2022/01/29 07:12:29;;;;;;;12.43;6.75;;;;;;;3.25;83.91;99852.37;1772344;81;21335;-61
2022/01/29 07:15:34;;;;;;;9.80;7.20;;;;;;;3.29;83.66;99851.06;1772536;80;21556;-60
2022/01/29 07:18:39;;;;;;;15.68;14.20;;;;;;;3.31;83.45;99860.77;1772532;80;21204;-60
2022/01/29 07:21:46;;;;;;;18.50;16.07;;;;;;;3.32;83.27;99857.05;1772042;81;21382;-60
2022/01/29 07:24:53;;;;;;;19.35;11.18;;;;;;;3.37;83.22;99861.54;1787002;79;21717;-60
2022/01/29 07:27:59;;;;;;;13.88;8.48;;;;;;;3.51;83.15;99866.51;1734987;82;21218;-59
2022/01/29 07:31:05;;;;;;;10.15;6.40;;;;;;;3.66;82.88;99873.20;1774483;79;21757;-60
2022/01/29 07:34:11;;;;;;;22.10;10.75;;;;;;;3.79;82.51;99879.13;1713943;82;21240;-60
2022/01/29 07:37:16;;;;;;;33.48;14.98;;;;;;;3.92;82.15;99879.69;1778202;80;21196;-61
2022/01/29 07:40:23;;;;;;;49.13;21.02;;;;;;;4.03;81.81;99876.80;1776935;80;21367;-60
2022/01/29 07:43:29;;;;;;;55.98;29.15;;;;;;;4.06;81.32;99884.63;1778150;80;21196;-60
2022/01/29 07:46:36;;;;;;;38.00;20.37;;;;;;;4.06;80.99;99883.28;1778476;80;21272;-60
2022/01/29 07:49:41;;;;;;;31.25;14.05;;;;;;;4.00;80.77;99896.05;1764600;81;21694;-60
2022/01/29 07:52:47;;;;;;;35.55;15.80;;;;;;;3.99;80.71;99897.56;1765510;81;21173;-60
2022/01/29 07:55:55;;;;;;;37.88;16.52;;;;;;;3.93;80.55;99892.21;1765360;81;21224;-62
2022/01/29 07:59:03;;;;;;;29.55;13.48;;;;;;;3.90;80.53;99900.63;1760202;81;21207;-62
2022/01/29 08:02:10;;;;;;;21.50;11.53;;;;;;;3.94;80.62;99902.06;1765518;81;21260;-62
2022/01/29 08:05:16;;;;;;;20.05;12.28;;;;;;;3.99;80.51;99901.62;1766778;80;21207;-63
2022/01/29 08:08:20;;;;;;;10.50;7.30;;;;;;;4.04;80.36;99912.34;1750028;81;21168;-62
2022/01/29 08:11:25;;;;;;;9.50;8.13;;;;;;;4.10;80.31;99911.79;1765889;81;21225;-63
2022/01/29 08:14:30;;;;;;;4.62;3.87;;;;;;;4.22;80.09;99911.95;1765640;81;21262;-62
2022/01/29 08:17:35;;;;;;;27.98;13.72;;;;;;;4.38;79.84;99915.39;1765719;81;21598;-62
2022/01/29 08:20:41;;;;;;;6.75;4.60;;;;;;;4.47;79.33;99926.72;1751866;81;21592;-62
2022/01/29 08:23:47;;;;;;;5.22;3.35;;;;;;;4.52;78.90;99917.61;1735052;82;21219;-63
2022/01/29 08:26:52;;;;;;;4.60;3.45;;;;;;;4.54;78.41;99911.06;1735806;82;21208;-62
2022/01/29 08:29:57;;;;;;;6.55;4.67;;;;;;;4.50;78.05;99923.19;1735581;82;21705;-61
2022/01/29 08:33:02;;;;;;;3.42;3.00;;;;;;;4.49;77.95;99926.91;1735920;82;21238;-61
2022/01/29 08:36:08;;;;;;;6.05;3.75;;;;;;;4.51;77.86;99924.05;1736033;82;21235;-61
2022/01/29 08:39:14;;;;;;;3.90;2.87;;;;;;;4.49;77.60;99935.04;1736019;82;21215;-61
2022/01/29 08:42:21;;;;;;;3.72;3.05;;;;;;;4.47;77.50;99934.84;1740396;81;21697;-64
2022/01/29 08:45:26;;;;;;;4.12;3.00;;;;;;;4.48;77.57;99940.61;1736609;82;21215;-62
2022/01/29 08:48:31;;;;;;;3.30;2.75;;;;;;;4.46;77.37;99948.89;1742076;79;21217;-62
2022/01/29 08:51:36;;;;;;;4.45;3.47;;;;;;;4.38;77.42;99956.90;1772504;81;21323;-61
2022/01/29 08:54:40;;;;;;;8.73;5.28;;;;;;;4.38;77.63;99958.74;1772045;80;21224;-61
2022/01/29 08:57:46;;;;;;;5.85;4.45;;;;;;;4.45;77.66;99959.88;1798883;79;21315;-62
2022/01/29 09:00:54;;;;;;;7.10;5.25;;;;;;;4.56;77.61;99963.27;1803492;79;21315;-61
2022/01/29 09:04:00;;;;;;;7.45;6.08;;;;;;;4.61;77.30;99954.69;1803016;79;21728;-61
2022/01/29 09:07:06;;;;;;;6.17;4.58;;;;;;;4.63;77.12;99964.37;1793646;79;21546;-61
2022/01/29 09:10:14;;;;;;;10.55;5.90;;;;;;;4.67;76.89;99962.71;1772883;80;21200;-60
2022/01/29 09:13:19;;;;;;;8.15;4.83;;;;;;;4.64;76.51;99961.17;1765471;81;21346;-60
2022/01/29 09:16:24;;;;;;;6.85;4.87;;;;;;;4.62;76.23;99965.88;1764988;81;21543;-61
2022/01/29 09:19:32;;;;;;;7.12;4.12;;;;;;;4.53;75.73;99975.73;1763979;81;21196;-60
2022/01/29 09:22:39;;;;;;;7.45;4.50;;;;;;;4.42;75.49;99970.49;1763798;81;21189;-60
2022/01/29 09:25:46;;;;;;;4.75;3.75;;;;;;;4.36;75.56;99985.98;1763910;81;21213;-60
2022/01/29 09:28:52;;;;;;;6.15;4.17;;;;;;;4.30;75.45;99985.22;1764270;81;21256;-60
2022/01/29 09:31:57;;;;;;;6.95;4.47;;;;;;;4.35;75.53;99980.72;1764022;81;21200;-60
2022/01/29 09:35:02;;;;;;;5.95;4.03;;;;;;;4.37;75.27;99974.17;1763756;81;21212;-59
2022/01/29 09:38:08;;;;;;;5.72;3.80;;;;;;;4.43;75.06;99978.13;1764007;81;21256;-61
2022/01/29 09:41:14;;;;;;;6.47;4.10;;;;;;;4.46;74.62;99979.19;1764127;81;21189;-60
2022/01/29 09:44:22;;;;;;;9.68;6.55;;;;;;;4.47;74.22;100003.43;1763892;81;21745;-61
2022/01/29 09:47:31;;;;;;;10.72;6.17;;;;;;;4.48;74.11;99994.31;1764547;81;21287;-61
2022/01/29 09:50:43;;;;;;;6.65;4.28;;;;;;;4.52;74.08;99994.85;1764251;80;21220;-61
2022/01/29 09:53:50;;;;;;;7.58;5.58;;;;;;;4.53;73.82;99992.52;1764757;81;21785;-60
2022/01/29 09:56:55;;;;;;;8.83;5.92;;;;;;;4.59;73.67;99999.56;1783999;79;21320;-61
2022/01/29 10:00:01;;;;;;;6.15;4.20;;;;;;;4.66;73.50;100003.03;1803557;79;21311;-61
2022/01/29 10:03:22;;;;;;;5.70;3.55;;;;;;;4.73;73.21;100015.84;1801808;79;21169;-61
2022/01/29 10:06:32;;;;;;;5.60;4.08;;;;;;;4.84;73.19;100018.86;1802369;79;21487;-62
2022/01/29 10:09:40;;;;;;;7.17;3.75;;;;;;;4.90;72.64;100023.72;1802244;79;21351;-62
2022/01/29 10:12:46;;;;;;;5.35;3.67;;;;;;;4.87;72.38;100022.66;1803074;79;21315;-62
2022/01/29 10:15:52;;;;;;;5.83;3.47;;;;;;;4.84;72.39;100028.34;1803636;79;21335;-62
2022/01/29 10:19:17;;;;;;;5.45;3.30;;;;;;;4.78;72.46;100027.59;1803549;79;21398;-62
2022/01/29 10:22:32;;;;;;;5.40;3.22;;;;;;;4.69;72.76;100036.13;1802405;79;21200;-62
2022/01/29 10:25:44;;;;;;;5.12;3.20;;;;;;;4.63;73.12;100029.08;1801230;79;21208;-63
2022/01/29 10:28:49;;;;;;;4.15;3.40;;;;;;;4.63;73.57;100025.84;1802137;79;21378;-63
2022/01/29 10:31:57;;;;;;;5.20;3.55;;;;;;;4.75;73.89;100037.37;1801903;79;21335;-62
2022/01/29 10:35:04;;;;;;;4.22;3.30;;;;;;;4.87;73.76;100036.22;1771104;80;21955;-63
2022/01/29 10:38:11;;;;;;;4.20;3.22;;;;;;;4.95;73.60;100034.97;1771644;81;21185;-62
2022/01/29 10:41:31;;;;;;;3.45;3.15;;;;;;;5.02;73.29;100040.14;1771801;81;21861;-62
2022/01/29 10:44:41;;;;;;;3.70;3.25;;;;;;;5.01;73.18;100040.63;1772134;80;21690;-62
2022/01/29 10:48:04;;;;;;;3.72;3.30;;;;;;;4.99;72.98;100032.30;1756987;79;21200;-62
2022/01/29 10:51:19;;;;;;;4.37;3.63;;;;;;;4.95;73.02;100040.41;1728142;82;21205;-61
2022/01/29 10:54:27;;;;;;;5.80;3.80;;;;;;;4.87;73.11;100059.27;1794850;79;21997;-62
2022/01/29 10:57:51;;;;;;;6.70;4.33;;;;;;;4.81;73.46;100058.47;1759860;81;21767;-62
2022/01/29 11:01:19;;;;;;;6.80;4.33;;;;;;;4.79;73.69;100051.02;1759860;81;21928;-62
2022/01/29 11:04:27;;;;;;;5.35;4.12;;;;;;;4.87;74.00;100059.27;1759907;81;21482;-61
2022/01/29 11:07:33;;;;;;;12.60;5.42;;;;;;;4.92;73.57;100070.50;1760196;81;21741;-63
2022/01/29 11:10:40;;;;;;;6.22;5.08;;;;;;;4.85;73.07;100069.39;1760221;81;21384;-62
2022/01/29 11:13:47;;;;;;;7.67;5.37;;;;;;;4.76;72.97;100075.71;1758899;81;21355;-62
2022/01/29 11:16:53;;;;;;;5.67;4.85;;;;;;;4.72;72.75;100075.14;1759934;81;21177;-62
2022/01/29 11:20:00;;;;;;;6.33;5.40;;;;;;;4.63;72.35;100074.64;1759958;81;21220;-62
2022/01/29 11:23:05;;;;;;;8.23;6.40;;;;;;;4.56;72.41;100084.37;1759967;81;21896;-61
2022/01/29 11:26:12;;;;;;;7.50;5.05;;;;;;;4.50;72.26;100081.72;1744548;81;21290;-60
2022/01/29 11:29:40;;;;;;;5.42;4.65;;;;;;;4.43;71.96;100093.30;1760428;81;21921;-60
2022/01/29 11:32:54;;;;;;;5.08;4.12;;;;;;;4.31;71.59;100083.09;1760138;81;21327;-61
2022/01/29 11:36:01;;;;;;;5.80;4.50;;;;;;;4.22;71.78;100080.39;1759616;81;21304;-61
2022/01/29 11:39:34;;;;;;;4.20;3.40;;;;;;;4.19;71.72;100081.55;1767981;79;21193;-61
2022/01/29 11:42:37;;;;;;;5.92;3.83;;;;;;;4.16;71.35;100083.19;1801630;79;21339;-61
2022/01/29 11:45:54;;;;;;;5.55;3.98;;;;;;;4.16;71.29;100098.58;1793955;79;21857;-62
2022/01/29 11:49:00;;;;;;;5.20;3.37;;;;;;;4.18;71.15;100105.58;1792146;79;21201;-61
2022/01/29 11:52:07;;;;;;;8.00;5.35;;;;;;;4.17;70.92;100104.38;1727941;81;21493;-62
2022/01/29 11:55:14;;;;;;;6.75;4.90;;;;;;;4.17;70.83;100112.50;1749945;81;21741;-62
2022/01/29 11:58:26;;;;;;;10.43;7.12;;;;;;;4.20;70.68;100122.52;1735371;82;21156;-62
2022/01/29 12:01:40;;;;;;;7.87;5.33;;;;;;;4.19;70.52;100122.67;1731223;82;21185;-61
2022/01/29 12:05:06;;;;;;;7.28;5.30;;;;;;;4.15;70.41;100131.61;1764252;81;21366;-63
2022/01/29 12:08:20;;;;;;;6.80;5.37;;;;;;;4.13;70.54;100124.59;1732341;83;21216;-62
2022/01/29 12:11:27;;;;;;;8.98;6.53;;;;;;;4.11;70.41;100134.22;1734290;82;21196;-62
2022/01/29 12:14:33;;;;;;;6.30;4.83;;;;;;;4.03;70.33;100145.38;1764420;81;21209;-61
2022/01/29 12:18:01;;;;;;;9.43;6.17;;;;;;;3.96;70.44;100153.24;1733457;83;21204;-62
2022/01/29 12:21:06;;;;;;;8.40;5.78;;;;;;;3.88;70.52;100157.62;1734585;82;21745;-62
2022/01/29 12:24:11;;;;;;;8.95;6.20;;;;;;;3.84;70.82;100154.34;1765256;81;21212;-62
2022/01/29 12:27:16;;;;;;;8.33;6.45;;;;;;;3.87;71.00;100161.34;1764965;81;21354;-62
2022/01/29 12:30:34;;;;;;;5.35;4.30;;;;;;;3.87;71.12;100165.41;1755723;81;21229;-61
2022/01/29 12:33:40;;;;;;;6.37;4.55;;;;;;;3.88;71.22;100169.33;1717547;83;21822;-64
2022/01/29 12:36:46;;;;;;;7.25;4.87;;;;;;;3.87;71.15;100166.23;1689191;85;21734;-63
2022/01/29 12:39:52;;;;;;;9.83;5.83;;;;;;;3.90;71.07;100173.25;1689720;84;21415;-61
2022/01/29 12:43:09;;;;;;;8.83;6.20;;;;;;;3.87;71.02;100169.47;1689589;85;21352;-62
2022/01/29 12:46:32;;;;;;;9.50;6.60;;;;;;;3.87;71.04;100177.06;1753867;82;21244;-63
2022/01/29 12:49:48;;;;;;;8.60;5.70;;;;;;;3.90;71.07;100182.20;1717545;83;21202;-62
2022/01/29 12:52:53;;;;;;;11.28;8.00;;;;;;;3.91;70.67;100193.41;1709739;82;21217;-62
2022/01/29 12:56:10;;;;;;;6.45;5.00;;;;;;;3.83;70.37;100197.30;1782704;80;21335;-62
2022/01/29 12:59:20;;;;;;;8.23;5.08;;;;;;;3.75;70.00;100190.37;1776198;80;21363;-61
2022/01/29 13:02:26;;;;;;;4.60;3.80;;;;;;;3.66;69.93;100200.67;1709469;83;21245;-62
2022/01/29 13:05:32;;;;;;;6.65;4.72;;;;;;;3.60;69.66;100203.89;1710596;82;21371;-62
2022/01/29 13:08:37;;;;;;;8.15;5.55;;;;;;;3.53;69.70;100198.69;1725569;82;21378;-61
2022/01/29 13:11:48;;;;;;;6.70;5.17;;;;;;;3.49;69.79;100198.58;1724797;83;21343;-62
2022/01/29 13:14:56;;;;;;;6.10;5.00;;;;;;;3.47;69.99;100203.78;1724744;82;21936;-61
2022/01/29 13:18:00;;;;;;;8.60;5.83;;;;;;;3.45;70.04;100201.21;1709391;83;21881;-63
2022/01/29 13:21:06;;;;;;;9.20;6.87;;;;;;;3.42;69.89;100203.33;1709740;83;21201;-63
2022/01/29 13:24:37;;;;;;;11.22;7.00;;;;;;;3.36;69.99;100202.03;1725495;82;21690;-62
2022/01/29 13:27:44;;;;;;;6.22;4.95;;;;;;;3.34;70.15;100199.95;1725517;83;21781;-62
2022/01/29 13:30:51;;;;;;;7.08;4.80;;;;;;;3.34;70.11;100213.47;1741098;81;21359;-62
2022/01/29 13:34:04;;;;;;;7.72;5.50;;;;;;;3.32;70.09;100218.64;1750431;82;21233;-62
2022/01/29 13:37:05;;;;;;;9.13;6.10;;;;;;;3.28;70.14;100214.02;1740297;81;21399;-62
2022/01/29 13:40:21;;;;;;;7.83;5.55;;;;;;;3.25;70.24;100219.66;1755802;81;21387;-61
2022/01/29 13:43:39;;;;;;;7.05;4.95;;;;;;;3.24;70.35;100226.08;1719415;82;21201;-63
2022/01/29 13:46:44;;;;;;;9.23;6.35;;;;;;;3.23;70.41;100235.19;1721012;83;21335;-62
2022/01/29 13:49:52;;;;;;;9.78;6.78;;;;;;;3.26;70.40;100232.22;1793133;78;21220;-66
2022/01/29 13:53:19;;;;;;;6.12;4.28;;;;;;;3.30;70.30;100248.53;1766287;80;21358;-66
2022/01/29 13:56:29;;;;;;;5.10;3.92;;;;;;;3.27;70.26;100244.73;1765719;81;21205;-62
2022/01/29 13:59:37;;;;;;;7.62;5.17;;;;;;;3.25;70.27;100242.66;1729846;82;21294;-61
2022/01/29 14:02:58;;;;;;;8.23;5.50;;;;;;;3.26;70.39;100244.39;1766154;81;21189;-62
2022/01/29 14:06:08;;;;;;;8.53;5.08;;;;;;;3.27;70.58;100246.09;1730150;83;21364;-61
2022/01/29 14:09:35;;;;;;;6.62;4.60;;;;;;;3.27;70.68;100246.09;1766867;81;21232;-62
2022/01/29 14:12:43;;;;;;;6.80;5.35;;;;;;;3.30;70.72;100247.17;1729910;83;21207;-62
2022/01/29 14:15:50;;;;;;;7.72;5.22;;;;;;;3.25;70.71;100246.71;1766585;81;21173;-61
2022/01/29 14:18:56;;;;;;;9.48;5.95;;;;;;;3.21;70.74;100252.52;1766267;81;21279;-61
2022/01/29 14:22:01;;;;;;;14.87;9.78;;;;;;;3.16;70.73;100254.28;1729182;81;21360;-62
2022/01/29 14:25:11;;;;;;;11.65;7.35;;;;;;;3.14;70.86;100260.83;1763493;81;21185;-62
2022/01/29 14:28:16;;;;;;;17.42;10.68;;;;;;;3.12;70.89;100258.25;1729701;82;21266;-62
2022/01/29 14:31:22;;;;;;;5.90;4.92;;;;;;;3.11;70.98;100260.57;1766939;81;21173;-61
2022/01/29 14:34:28;;;;;;;5.28;4.12;;;;;;;3.08;70.97;100266.25;1784100;79;21347;-62
2022/01/29 14:37:35;;;;;;;5.28;4.30;;;;;;;3.03;70.99;100264.42;1785848;80;21336;-61
2022/01/29 14:40:41;;;;;;;8.15;5.10;;;;;;;2.98;71.13;100267.53;1767514;81;21818;-62
2022/01/29 14:43:46;;;;;;;7.15;5.30;;;;;;;2.98;71.32;100272.10;1767470;79;21280;-63
2022/01/29 14:46:54;;;;;;;8.83;6.30;;;;;;;2.99;71.52;100268.39;1767582;81;21357;-62
2022/01/29 14:50:02;;;;;;;8.73;5.00;;;;;;;2.98;71.55;100268.88;1736602;82;21216;-62
2022/01/29 15:00:45;;;;;;;6.58;4.78;;;;;;;2.95;71.81;100289.91;1758040;79;21754;-62